Relevés horaires Laegern (Suisse)


Relevés horaires à Laegern - Vendredi 24 Avr. 2026
Heure UTC1 Température [°C] Vent [km/h] Hum. [%] Pres.4 [hPa] Visi. [Km] Nébu. [octa] Préc.5 [mm] Cond.
2m. Res. Ros. Dir.2 Vit. Moy. Raf.3
23:00 12.1 9.6 -4.0 NE 25.9 -- 31.5 32 850(-0.3/3h) -- -- -- --
22:00 12.2 9.6 -4.3 NNE 27.8 -- 37.0 31 850(0.0/3h) -- -- -- --
21:00 13.9 12.6 -2.5 N 16.7 -- 27.8 32 850(0.3/3h) -- -- -- --
20:00 15.4 14.6 -0.9 NO 14.8 -- 16.7 33 850(0.2/3h) -- -- -- --
19:00 15.6 15.6 -1.9 NO 7.4 -- 14.8 30 850(-0.2/3h) -- -- -- --
18:00 16.2 15.9 -1.7 ONO 11.1 -- 18.5 29 850(-0.7/3h) -- -- -- --
17:00 18.7 18.7 -6.1 S 3.7 -- 11.1 18 850(-0.9/3h) -- -- -- --
16:00 19.4 19.4 -5.4 S 3.7 -- 9.3 18 850(-1.0/3h) -- -- -- --
15:00 18.0 18.0 -7.4 NO 3.7 -- 18.5 17 850(-1.1/3h) -- -- -- --
14:00 16.6 16.6 -5.9 N 9.3 -- 18.5 21 850(-0.9/3h) -- -- -- --
13:00 15.6 15.6 -6.8 N 5.6 -- 18.5 21 850(-0.7/3h) -- -- -- --
12:00 14.5 13.7 -6.9 N 13.0 -- 27.8 22 850(-0.3/3h) -- -- -- --
11:00 13.0 11.4 -4.5 N 16.7 -- 27.8 29 850(-0.2/3h) -- -- -- --
10:00 11.7 10 -3.1 NNE 14.8 -- 25.9 35 850(0.0/3h) -- -- -- --
09:00 9.9 7.8 -2.4 NNE 14.8 -- 22.2 42 850(-0.1/3h) -- -- -- --
08:00 9.3 7.6 -2.7 NNE 11.1 -- 16.7 43 850(-0.1/3h) -- -- -- --
07:00 8.5 7.4 -3.0 NNE 7.4 -- 16.7 44 850(-0.1/3h) -- -- -- --
06:00 8.3 6.1 -3.5 ENE 13.0 -- 31.5 43 850(-0.4/3h) -- -- -- --
05:00 7.5 4.2 -4.1 NE 20.4 -- 25.9 43 850(-0.6/3h) -- -- -- --
04:00 9.0 5.9 -4.1 ENE 22.2 -- 29.6 39 850(-0.9/3h) -- -- -- --
03:00 9.5 6.5 -4.2 ENE 22.2 -- 31.5 38 850(-0.8/3h) -- -- -- --
02:00 8.7 5.5 -4.7 NE 22.2 -- 31.5 38 850(-1.1/3h) -- -- -- --
01:00 9.0 5.7 -4.8 NE 24.1 -- 31.5 37 850(-1.0/3h) -- -- -- --
00:00 9.3 6 -5.2 NNE 25.9 -- 35.2 35 850(-0.7/3h) -- -- -- --

1 Coordinated Universal Time. Actuellement il est 16:00 locale et 14:00 UTC.

2 Le vent souffle depuis la direction indiquée vers la direction oposée.

3 Les rafales max. sont disponible 40 min après l'heure du relevé.

4 Pour les stations d'altitude (plus de 600m) le géopotentiel du niveau le plus proche de la pression obligatoire est indiqué.

5 Les stations disposant d'un diffuseur peuvent indiquer "trace". Cela signifie que des précipitations ont touchés le sol mais que la quantité est inférieure à 0.1 mm.

Copyright

Les données affichées sur cette page sont la propriété exclusive de Météo Suisse.

Récapitulatif de la journée
Température [°C] Vent [km/h] Ensoleillement4 [h] Precipitations totale5 [mm] Pression [Hpa]
Min1 Max.2 Moy.3 Max. Min Max.
7.5 19.4 0 37.0 13 h 24 min 0 850.0 850.0

1 Température minimale relevée entre 18:00 UTC la veille et 18:00 UTC le jour donné.

2 Température maximale relevée entre 06:00 UTC le jour donné et 06:00 UTC le lendemain.

3 Vent moyen de la journée basé sur les relevés horaires.

4 Ensoleillement en heures relevé entre 06:00 UTC la veille et 06:00 UTC le jour donné.

5 Précipitations totales tombées entre 06:00 UTC la jour donné et 06:00 UTC le lendemain.

Graphiques horaires